createdAt,value
2019-05-11T00:00:24.109Z,3.80
2019-05-11T00:02:52.356Z,3.50
2019-05-11T00:05:20.609Z,3.57
2019-05-11T00:07:48.892Z,5.90
2019-05-11T00:10:23.213Z,3.37
2019-05-11T00:12:47.218Z,3.40
2019-05-11T00:15:15.550Z,6.57
2019-05-11T00:17:43.824Z,3.97
2019-05-11T00:20:12.128Z,4.40
2019-05-11T00:22:40.372Z,4.50
2019-05-11T00:25:08.700Z,4.10
2019-05-11T00:27:36.970Z,7.30
2019-05-11T00:30:06.547Z,4.30
2019-05-11T00:32:34.809Z,4.83
2019-05-11T00:35:03.435Z,4.80
2019-05-11T00:37:31.718Z,4.13
2019-05-11T00:40:13.254Z,4.47
2019-05-11T00:42:29.976Z,4.60
2019-05-11T00:44:58.230Z,5.30
2019-05-11T00:47:26.487Z,4.70
2019-05-11T00:49:54.759Z,5.60
2019-05-11T00:52:23.001Z,4.47
2019-05-11T00:54:51.251Z,6.50
2019-05-11T00:57:19.520Z,5.33
2019-05-11T00:59:47.799Z,13.80
2019-05-11T01:02:16.064Z,6.17
2019-05-11T01:04:44.343Z,5.27
2019-05-11T01:07:12.603Z,5.33
2019-05-11T01:09:40.850Z,4.30
2019-05-11T01:12:09.143Z,4.90
2019-05-11T01:14:37.394Z,4.80
2019-05-11T01:17:05.645Z,4.83
2019-05-11T01:19:33.907Z,5.00
2019-05-11T01:22:02.176Z,4.73
2019-05-11T01:24:30.463Z,4.90
2019-05-11T01:26:58.728Z,6.30
2019-05-11T01:29:26.987Z,5.03
2019-05-11T01:31:55.259Z,5.63
2019-05-11T01:34:23.523Z,5.10
2019-05-11T01:36:51.797Z,5.63
2019-05-11T01:39:20.080Z,5.00
2019-05-11T01:41:48.357Z,4.23
2019-05-11T01:44:16.689Z,6.07
2019-05-11T01:46:44.956Z,5.20
2019-05-11T01:49:13.276Z,5.07
2019-05-11T01:51:41.558Z,6.70
2019-05-11T01:54:09.826Z,5.77
2019-05-11T01:56:38.081Z,5.77
2019-05-11T01:59:06.346Z,6.57
2019-05-11T02:01:34.679Z,6.23
2019-05-11T02:04:02.935Z,9.20
2019-05-11T02:06:31.231Z,7.23
2019-05-11T02:08:59.483Z,7.27
2019-05-11T02:11:27.734Z,7.77
2019-05-11T02:13:56.018Z,10.07
2019-05-11T02:16:24.283Z,8.80
2019-05-11T02:18:52.544Z,7.80
2019-05-11T02:21:20.816Z,8.60
2019-05-11T02:23:49.073Z,7.93
2019-05-11T02:26:17.334Z,8.70
2019-05-11T02:28:45.858Z,9.50
2019-05-11T02:31:14.150Z,8.53
2019-05-11T02:33:42.399Z,8.90
2019-05-11T02:36:10.680Z,9.57
2019-05-11T02:38:39.023Z,7.83
2019-05-11T02:41:07.282Z,8.93
2019-05-11T02:43:35.541Z,8.97
2019-05-11T02:46:03.843Z,9.03
2019-05-11T02:48:32.093Z,9.30
2019-05-11T02:51:00.738Z,13.57
2019-05-11T02:53:30.631Z,9.07
2019-05-11T02:55:59.267Z,9.67
2019-05-11T02:58:27.541Z,8.00
2019-05-11T03:00:55.831Z,9.37
2019-05-11T03:03:24.138Z,8.63
2019-05-11T03:05:52.457Z,8.77
2019-05-11T03:08:20.700Z,9.50
2019-05-11T03:10:48.972Z,8.97
2019-05-11T03:13:17.250Z,9.10
2019-05-11T03:15:45.510Z,10.27
2019-05-11T03:18:13.828Z,9.50
2019-05-11T03:20:42.098Z,14.67
2019-05-11T03:23:10.368Z,8.87
2019-05-11T03:25:38.680Z,10.00
2019-05-11T03:28:06.991Z,9.57
2019-05-11T03:30:35.317Z,9.47
2019-05-11T03:33:03.583Z,8.80
2019-05-11T03:35:31.873Z,8.83
2019-05-11T03:38:00.101Z,8.40
2019-05-11T03:40:28.367Z,8.83
2019-05-11T03:42:56.662Z,7.47
2019-05-11T03:45:24.921Z,9.00
2019-05-11T03:47:53.256Z,8.40
2019-05-11T03:50:21.515Z,8.87
2019-05-11T03:52:49.778Z,9.43
2019-05-11T03:55:18.151Z,9.30
2019-05-11T03:57:46.410Z,9.83
2019-05-11T04:00:14.721Z,8.10
2019-05-11T04:02:42.971Z,7.73
2019-05-11T04:05:11.379Z,8.60
2019-05-11T04:07:39.629Z,9.10
2019-05-11T04:10:08.353Z,7.97
2019-05-11T04:12:36.604Z,7.73
2019-05-11T04:15:08.258Z,9.53
2019-05-11T04:17:36.530Z,8.27
2019-05-11T04:20:08.149Z,9.10
2019-05-11T04:22:36.455Z,7.90
2019-05-11T04:25:05.552Z,7.97
2019-05-11T04:27:33.830Z,8.40
2019-05-11T04:30:02.118Z,10.50
2019-05-11T04:32:30.381Z,10.10
2019-05-11T04:34:58.646Z,9.67
2019-05-11T04:37:26.902Z,11.00
2019-05-11T04:39:55.179Z,11.30
2019-05-11T04:42:23.446Z,13.20
2019-05-11T04:44:52.607Z,14.10
2019-05-11T04:47:20.981Z,13.93
2019-05-11T04:49:49.227Z,14.90
2019-05-11T04:52:17.515Z,13.70
2019-05-11T04:54:45.778Z,14.43
2019-05-11T04:57:14.153Z,14.90
2019-05-11T04:59:42.410Z,15.70
2019-05-11T05:02:10.715Z,15.60
2019-05-11T05:04:38.989Z,16.27
2019-05-11T05:07:10.602Z,16.63
2019-05-11T05:09:42.848Z,18.40
2019-05-11T05:12:08.446Z,19.03
2019-05-11T05:14:37.300Z,19.63
2019-05-11T05:17:05.563Z,19.53
2019-05-11T05:19:33.843Z,21.43
2019-05-11T05:22:02.129Z,23.77
2019-05-11T05:24:30.401Z,25.27
2019-05-11T05:26:58.670Z,26.30
2019-05-11T05:29:26.927Z,26.60
2019-05-11T05:31:55.202Z,29.77
2019-05-11T05:34:23.477Z,27.50
2019-05-11T05:36:51.729Z,26.53
2019-05-11T05:39:20.030Z,28.97
2019-05-11T05:41:56.647Z,28.40
2019-05-11T05:44:18.265Z,28.00
2019-05-11T05:46:46.571Z,28.63
2019-05-11T05:49:14.852Z,26.93
2019-05-11T05:51:43.115Z,27.10
2019-05-11T05:54:11.391Z,26.33
2019-05-11T05:56:39.647Z,25.60
2019-05-11T05:59:07.931Z,25.10
2019-05-11T06:01:36.191Z,24.07
2019-05-11T06:04:04.514Z,24.57
2019-05-11T06:06:32.863Z,26.17
2019-05-11T06:09:01.162Z,23.83
2019-05-11T06:11:29.424Z,26.57
2019-05-11T06:13:57.793Z,24.20
2019-05-11T06:16:26.095Z,27.40
2019-05-11T06:18:54.360Z,25.27
2019-05-11T06:21:22.615Z,26.30
2019-05-11T06:23:50.901Z,24.17
2019-05-11T06:26:19.157Z,26.13
2019-05-11T06:28:47.458Z,25.50
2019-05-11T06:31:15.719Z,24.80
2019-05-11T06:33:43.965Z,25.10
2019-05-11T06:36:12.236Z,24.27
2019-05-11T06:38:40.502Z,25.77
2019-05-11T06:41:08.768Z,26.17
2019-05-11T06:43:37.135Z,25.97
2019-05-11T06:46:05.395Z,26.20
2019-05-11T06:48:33.681Z,26.67
2019-05-11T06:51:01.959Z,27.30
2019-05-11T06:53:30.237Z,27.77
2019-05-11T06:55:58.519Z,27.77
2019-05-11T06:58:26.853Z,27.57
2019-05-11T07:00:55.103Z,24.00
2019-05-11T07:03:23.409Z,25.77
2019-05-11T07:05:51.667Z,25.53
2019-05-11T07:08:19.926Z,25.43
2019-05-11T07:10:48.243Z,25.40
2019-05-11T07:13:16.579Z,24.30
2019-05-11T07:15:44.831Z,23.03
2019-05-11T07:18:13.114Z,23.23
2019-05-11T07:20:50.115Z,23.17
2019-05-11T07:23:11.381Z,23.00
2019-05-11T07:25:39.717Z,22.53
2019-05-11T07:28:07.972Z,22.63
2019-05-11T07:30:36.311Z,22.10
2019-05-11T07:33:04.658Z,21.97
2019-05-11T07:35:33.876Z,21.60
2019-05-11T07:38:02.160Z,20.20
2019-05-11T07:40:30.501Z,21.70
2019-05-11T07:42:59.114Z,20.87
2019-05-11T07:45:28.319Z,23.47
2019-05-11T07:47:58.798Z,23.97
2019-05-11T07:50:28.339Z,22.47
2019-05-11T07:52:58.869Z,21.80
2019-05-11T07:55:28.208Z,21.40
2019-05-11T07:57:58.625Z,21.00
2019-05-11T08:00:28.011Z,21.30
2019-05-11T08:02:58.464Z,18.57
2019-05-11T08:05:28.382Z,18.00
2019-05-11T08:07:56.438Z,18.43
2019-05-11T08:10:24.705Z,14.80
2019-05-11T08:12:53.001Z,14.13
2019-05-11T08:15:21.290Z,14.10
2019-05-11T08:17:49.592Z,13.27
2019-05-11T08:20:18.676Z,12.57
2019-05-11T08:22:48.237Z,12.47
2019-05-11T08:25:18.237Z,12.20
2019-05-11T08:27:48.531Z,10.70
2019-05-11T08:30:18.796Z,10.77
2019-05-11T08:32:49.083Z,10.07
2019-05-11T08:35:17.922Z,10.80
2019-05-11T08:37:47.895Z,11.27
2019-05-11T08:40:18.419Z,10.67
2019-05-11T08:42:48.233Z,11.67
2019-05-11T08:45:23.253Z,10.83
2019-05-11T08:47:48.493Z,11.00
2019-05-11T08:50:18.711Z,11.57
2019-05-11T08:52:47.908Z,9.47
2019-05-11T08:55:18.790Z,9.83
2019-05-11T08:57:47.928Z,10.23
2019-05-11T09:00:18.068Z,10.77
2019-05-11T09:02:49.807Z,10.07
2019-05-11T09:05:18.675Z,10.03
2019-05-11T09:07:48.353Z,9.87
2019-05-11T09:10:18.583Z,9.30
2019-05-11T09:12:48.601Z,11.63
2019-05-11T09:15:30.032Z,9.97
2019-05-11T09:17:48.795Z,10.03
2019-05-11T09:20:18.107Z,9.87
2019-05-11T09:22:48.523Z,9.40
2019-05-11T09:25:18.307Z,11.13
2019-05-11T09:27:48.262Z,11.80
2019-05-11T09:30:18.455Z,10.53
2019-05-11T09:32:47.796Z,9.93
2019-05-11T09:35:18.668Z,10.30
2019-05-11T09:37:48.392Z,10.47
2019-05-11T09:40:18.255Z,10.70
2019-05-11T09:42:47.916Z,11.20
2019-05-11T09:45:18.708Z,12.53
2019-05-11T09:47:47.727Z,12.83
2019-05-11T09:50:17.865Z,12.37
2019-05-11T09:52:48.725Z,13.40
2019-05-11T09:55:18.802Z,11.27
2019-05-11T09:57:48.674Z,11.43
2019-05-11T10:00:17.892Z,11.27
2019-05-11T10:02:48.557Z,11.50
2019-05-11T10:05:18.581Z,13.17
2019-05-11T10:07:48.482Z,13.33
2019-05-11T10:10:18.593Z,11.73
2019-05-11T10:12:48.557Z,13.30
2019-05-11T10:15:18.721Z,11.13
2019-05-11T10:17:48.266Z,10.30
2019-05-11T10:20:18.128Z,12.10
2019-05-11T10:22:48.664Z,12.03
2019-05-11T10:25:18.129Z,11.17
2019-05-11T10:27:48.869Z,11.40
2019-05-11T10:30:18.891Z,11.13
2019-05-11T10:32:48.457Z,11.07
2019-05-11T10:35:18.349Z,11.67
2019-05-11T10:37:47.812Z,11.77
2019-05-11T10:40:18.653Z,11.10
2019-05-11T10:42:48.386Z,11.90
2019-05-11T10:45:18.002Z,11.93
2019-05-11T10:47:48.726Z,12.63
2019-05-11T10:50:18.546Z,11.63
2019-05-11T10:52:48.399Z,10.57
2019-05-11T10:55:18.968Z,10.90
2019-05-11T10:57:48.712Z,9.83
2019-05-11T11:00:19.641Z,8.80
2019-05-11T11:02:47.791Z,9.67
2019-05-11T11:05:18.512Z,8.93
2019-05-11T11:07:48.407Z,9.20
2019-05-11T11:10:18.197Z,7.87
2019-05-11T11:12:48.749Z,7.93
2019-05-11T11:15:18.278Z,10.30
2019-05-11T11:17:48.465Z,8.50
2019-05-11T11:20:18.571Z,6.90
2019-05-11T11:22:48.050Z,6.07
2019-05-11T11:25:17.982Z,7.60
2019-05-11T11:27:48.436Z,6.57
2019-05-11T11:30:18.140Z,6.40
2019-05-11T11:32:48.283Z,6.23
2019-05-11T11:35:18.516Z,5.20
2019-05-11T11:37:47.857Z,3.97
2019-05-11T11:40:17.752Z,4.43
2019-05-11T11:42:47.798Z,4.50
2019-05-11T11:45:18.274Z,5.00
2019-05-11T11:47:49.062Z,4.20
2019-05-11T11:50:17.842Z,3.47
2019-05-11T11:52:47.715Z,4.07
2019-05-11T11:55:18.390Z,3.33
2019-05-11T11:57:48.472Z,3.67
2019-05-11T12:00:18.253Z,3.30
2019-05-11T12:02:48.638Z,3.90
2019-05-11T12:05:17.680Z,3.90
2019-05-11T12:07:45.981Z,4.70
2019-05-11T12:10:14.231Z,3.10
2019-05-11T12:12:42.498Z,3.73
2019-05-11T12:15:10.829Z,4.17
2019-05-11T12:17:39.114Z,4.83
2019-05-11T12:20:09.029Z,5.37
2019-05-11T12:22:38.654Z,6.30
2019-05-11T12:25:07.919Z,4.67
2019-05-11T12:27:38.432Z,5.10
2019-05-11T12:30:09.186Z,7.33
2019-05-11T12:32:41.947Z,4.77
2019-05-11T12:35:10.286Z,5.53
2019-05-11T12:37:38.555Z,5.30
2019-05-11T12:40:08.460Z,3.50
2019-05-11T12:42:38.091Z,3.27
2019-05-11T12:45:08.845Z,5.90
2019-05-11T12:47:38.498Z,4.30
2019-05-11T12:50:08.980Z,4.70
2019-05-11T12:52:38.269Z,5.70
2019-05-11T12:55:08.778Z,4.60
2019-05-11T12:57:38.547Z,7.33
2019-05-11T13:00:08.808Z,4.37
2019-05-11T13:02:38.837Z,5.33
2019-05-11T13:05:08.773Z,5.50
2019-05-11T13:07:39.248Z,4.07
2019-05-11T13:10:08.376Z,3.13
2019-05-11T13:12:38.562Z,3.63
2019-05-11T13:15:08.425Z,3.53
2019-05-11T13:17:40.033Z,6.57
2019-05-11T13:20:08.688Z,4.47
2019-05-11T13:22:38.215Z,4.20
2019-05-11T13:25:09.784Z,4.00
2019-05-11T13:27:38.725Z,3.53
2019-05-11T13:30:10.346Z,6.07
2019-05-11T13:32:38.738Z,6.67
2019-05-11T13:35:09.154Z,3.67
2019-05-11T13:37:38.651Z,4.83
2019-05-11T13:40:07.852Z,4.50
2019-05-11T13:42:38.593Z,7.47
2019-05-11T13:45:09.914Z,4.43
2019-05-11T13:47:51.584Z,4.57
2019-05-11T13:50:08.527Z,4.13
2019-05-11T13:52:38.577Z,5.40
2019-05-11T13:55:07.844Z,3.47
2019-05-11T13:57:37.968Z,4.40
2019-05-11T14:00:08.405Z,3.00
2019-05-11T14:02:37.914Z,3.60
2019-05-11T14:05:09.543Z,2.83
2019-05-11T14:07:38.289Z,2.97
2019-05-11T14:10:08.143Z,4.70
2019-05-11T14:12:38.547Z,3.07
2019-05-11T14:15:08.500Z,2.77
2019-05-11T14:17:37.997Z,3.10
2019-05-11T14:20:09.054Z,2.60
2019-05-11T14:22:38.661Z,2.80
2019-05-11T14:25:08.115Z,4.13
2019-05-11T14:27:38.349Z,3.00
2019-05-11T14:30:08.579Z,4.47
2019-05-11T14:32:38.814Z,4.53
2019-05-11T14:35:11.878Z,2.97
2019-05-11T14:37:38.060Z,3.03
2019-05-11T14:40:08.785Z,2.50
2019-05-11T14:42:38.242Z,2.13
2019-05-11T14:45:08.596Z,4.73
2019-05-11T14:47:38.762Z,2.80
2019-05-11T14:50:08.803Z,2.97
2019-05-11T14:52:39.218Z,3.20
2019-05-11T14:55:09.663Z,2.90
2019-05-11T14:57:39.609Z,4.07
2019-05-11T15:00:08.733Z,5.90
2019-05-11T15:02:45.605Z,5.80
2019-05-11T15:05:17.983Z,5.60
2019-05-11T15:07:47.946Z,3.37
2019-05-11T15:10:18.791Z,3.83
2019-05-11T15:12:48.870Z,3.20
2019-05-11T15:15:18.652Z,3.80
2019-05-11T15:17:49.157Z,2.90
2019-05-11T15:20:18.780Z,2.90
2019-05-11T15:22:48.890Z,5.07
2019-05-11T15:25:19.447Z,3.63
2019-05-11T15:27:48.749Z,6.30
2019-05-11T15:30:18.321Z,5.43
2019-05-11T15:32:48.151Z,8.13
2019-05-11T15:35:18.587Z,4.43
2019-05-11T15:37:47.924Z,4.13
2019-05-11T15:40:18.739Z,4.03
2019-05-11T15:42:48.695Z,4.23
2019-05-11T15:45:19.069Z,4.60
2019-05-11T15:47:48.731Z,4.70
2019-05-11T15:50:19.102Z,3.73
2019-05-11T15:52:48.813Z,3.90
2019-05-11T15:55:22.648Z,4.27
2019-05-11T15:57:53.908Z,4.73
2019-05-11T16:00:23.877Z,4.30
2019-05-11T16:02:52.218Z,5.03
2019-05-11T16:05:20.609Z,5.30
2019-05-11T16:07:49.433Z,6.67
2019-05-11T16:10:19.541Z,6.63
2019-05-11T16:12:49.462Z,7.00
2019-05-11T16:15:19.163Z,8.83
2019-05-11T16:17:49.573Z,9.27
2019-05-11T16:20:21.121Z,8.43
2019-05-11T16:22:51.058Z,8.20
2019-05-11T16:25:20.158Z,7.23
2019-05-11T16:27:48.711Z,11.13
2019-05-11T16:30:21.622Z,9.70
2019-05-11T16:32:49.980Z,6.97
2019-05-11T16:35:23.260Z,8.70
2019-05-11T16:37:51.550Z,8.77
2019-05-11T16:40:20.709Z,9.07
2019-05-11T16:42:49.608Z,6.97
2019-05-11T16:45:18.932Z,9.47
2019-05-11T16:47:48.447Z,6.80
2019-05-11T16:50:18.523Z,6.40
2019-05-11T16:52:48.338Z,7.13
2019-05-11T16:55:19.193Z,7.23
2019-05-11T16:57:48.354Z,8.43
2019-05-11T17:00:19.177Z,11.90
2019-05-11T17:02:49.046Z,9.50
2019-05-11T17:05:26.831Z,12.70
2019-05-11T17:07:50.818Z,11.00
2019-05-11T17:10:22.299Z,10.63
2019-05-11T17:12:50.570Z,10.30
2019-05-11T17:15:19.229Z,8.87
2019-05-11T17:17:51.986Z,8.03
2019-05-11T17:20:23.463Z,7.73
2019-05-11T17:22:53.849Z,7.10
2019-05-11T17:25:22.356Z,7.80
2019-05-11T17:27:55.240Z,6.90
2019-05-11T17:30:23.519Z,4.83
2019-05-11T17:32:51.867Z,4.70
2019-05-11T17:35:20.218Z,5.33
2019-05-11T17:37:48.922Z,5.10
2019-05-11T17:40:22.762Z,4.00
2019-05-11T17:42:48.039Z,3.70
2019-05-11T17:45:19.241Z,3.90
2019-05-11T17:47:47.540Z,4.63
2019-05-11T17:50:15.895Z,4.43
2019-05-11T17:52:44.163Z,4.33
2019-05-11T17:55:12.503Z,4.33
2019-05-11T17:57:41.259Z,3.50
2019-05-11T18:00:10.966Z,2.97
2019-05-11T18:02:39.306Z,2.90
2019-05-11T18:05:08.987Z,5.00
2019-05-11T18:07:38.500Z,3.60
2019-05-11T18:10:08.173Z,4.47
2019-05-11T18:12:38.852Z,4.20
2019-05-11T18:15:08.492Z,3.60
2019-05-11T18:17:37.540Z,4.23
2019-05-11T18:20:17.260Z,3.67
2019-05-11T18:22:39.033Z,6.13
2019-05-11T18:25:08.622Z,4.83
2019-05-11T18:27:38.670Z,3.20
2019-05-11T18:30:08.842Z,3.23
2019-05-11T18:32:39.540Z,3.90
2019-05-11T18:35:08.391Z,5.87
2019-05-11T18:37:38.890Z,4.07
2019-05-11T18:40:07.489Z,3.77
2019-05-11T18:42:38.092Z,5.03
2019-05-11T18:45:09.237Z,3.50
2019-05-11T18:47:38.183Z,4.03
2019-05-11T18:50:07.909Z,3.60
2019-05-11T18:52:36.253Z,4.00
2019-05-11T18:55:08.177Z,3.63
2019-05-11T18:57:35.663Z,4.97
2019-05-11T19:00:08.187Z,3.63
2019-05-11T19:02:38.419Z,4.30
2019-05-11T19:05:06.865Z,4.30
2019-05-11T19:07:35.136Z,3.60
2019-05-11T19:10:04.165Z,4.30
2019-05-11T19:12:34.112Z,4.27
2019-05-11T19:15:02.357Z,4.83
2019-05-11T19:17:30.611Z,4.63
2019-05-11T19:19:58.905Z,6.00
2019-05-11T19:22:28.914Z,5.47
2019-05-11T19:24:58.215Z,4.80
2019-05-11T19:27:28.675Z,5.17
2019-05-11T19:29:58.264Z,4.50
2019-05-11T19:32:28.213Z,5.17
2019-05-11T19:34:58.107Z,4.97
2019-05-11T19:37:27.870Z,4.03
2019-05-11T19:39:57.982Z,4.90
2019-05-11T19:42:28.444Z,3.90
2019-05-11T19:44:56.475Z,4.30
2019-05-11T19:47:24.753Z,4.43
2019-05-11T19:49:53.016Z,4.83
2019-05-11T19:52:21.310Z,5.20
2019-05-11T19:54:49.775Z,4.87
2019-05-11T19:57:18.143Z,4.40
2019-05-11T19:59:48.087Z,4.90
2019-05-11T20:02:17.872Z,5.30
2019-05-11T20:04:48.088Z,8.77
2019-05-11T20:07:18.356Z,5.23
2019-05-11T20:09:46.312Z,5.40
2019-05-11T20:12:14.788Z,5.80
2019-05-11T20:14:43.140Z,6.07
2019-05-11T20:17:11.401Z,6.23
2019-05-11T20:19:39.686Z,6.77
2019-05-11T20:22:07.959Z,7.10
2019-05-11T20:24:36.224Z,6.20
2019-05-11T20:27:04.521Z,6.97
2019-05-11T20:29:32.780Z,6.63
2019-05-11T20:32:01.077Z,6.17
2019-05-11T20:34:29.840Z,6.57
2019-05-11T20:36:58.774Z,6.13
2019-05-11T20:39:28.726Z,7.03
2019-05-11T20:41:58.148Z,7.50
2019-05-11T20:44:28.644Z,6.43
2019-05-11T20:46:58.056Z,7.03
2019-05-11T20:49:28.200Z,7.90
2019-05-11T20:51:58.032Z,7.07
2019-05-11T20:54:28.102Z,7.30
2019-05-11T20:56:58.471Z,7.43
2019-05-11T20:59:28.993Z,7.90
2019-05-11T21:01:58.723Z,8.00
2019-05-11T21:04:28.214Z,7.90
2019-05-11T21:06:57.994Z,7.70
2019-05-11T21:09:28.768Z,7.87
2019-05-11T21:11:58.624Z,7.40
2019-05-11T21:14:28.635Z,9.30
2019-05-11T21:16:58.661Z,9.50
2019-05-11T21:19:28.287Z,8.80
2019-05-11T21:21:58.720Z,8.77
2019-05-11T21:24:28.129Z,8.37
2019-05-11T21:26:58.431Z,8.50
2019-05-11T21:29:28.306Z,8.37
2019-05-11T21:31:58.710Z,9.57
2019-05-11T21:34:27.953Z,8.73
2019-05-11T21:36:56.397Z,9.60
2019-05-11T21:39:24.649Z,9.30
2019-05-11T21:44:20.362Z,11.70
2019-05-11T21:46:48.647Z,10.93
2019-05-11T21:49:18.423Z,10.97
2019-05-11T21:51:49.382Z,11.60
2019-05-11T21:54:16.975Z,11.63
2019-05-11T21:56:45.246Z,12.03
2019-05-11T21:59:13.523Z,11.17
2019-05-11T22:01:41.873Z,12.43
2019-05-11T22:04:11.333Z,12.07
2019-05-11T22:06:39.724Z,11.70
2019-05-11T22:09:08.942Z,12.07
2019-05-11T22:11:38.054Z,13.73
2019-05-11T22:14:08.284Z,13.20
2019-05-11T22:16:38.768Z,13.93
2019-05-11T22:19:08.689Z,11.87
2019-05-11T22:21:36.626Z,13.13
2019-05-11T22:24:04.923Z,12.60
2019-05-11T22:26:33.198Z,14.23
2019-05-11T22:29:01.509Z,14.60
2019-05-11T22:31:29.812Z,15.13
2019-05-11T22:33:58.411Z,14.70
2019-05-11T22:36:28.226Z,16.17
2019-05-11T22:38:58.739Z,15.83
2019-05-11T22:41:26.751Z,16.37
2019-05-11T22:43:55.023Z,14.27
2019-05-11T22:46:23.468Z,12.20
2019-05-11T22:48:51.756Z,12.47
2019-05-11T22:51:20.039Z,12.60
2019-05-11T22:53:50.543Z,12.80
2019-05-11T22:56:20.083Z,14.20
2019-05-11T22:58:49.922Z,14.37
2019-05-11T23:01:18.295Z,16.40
2019-05-11T23:03:47.559Z,15.53
2019-05-11T23:06:17.997Z,15.57
2019-05-11T23:08:48.318Z,12.80
2019-05-11T23:11:17.940Z,13.00
2019-05-11T23:13:47.849Z,12.20
2019-05-11T23:16:17.950Z,14.53
2019-05-11T23:18:48.064Z,13.57
2019-05-11T23:21:16.033Z,13.40
2019-05-11T23:23:44.316Z,13.07
2019-05-11T23:26:12.599Z,13.17
2019-05-11T23:28:40.895Z,13.70
2019-05-11T23:31:09.171Z,12.67
2019-05-11T23:33:38.471Z,14.50
2019-05-11T23:36:07.827Z,14.20
2019-05-11T23:38:38.522Z,14.93
2019-05-11T23:41:08.204Z,14.87
2019-05-11T23:43:38.373Z,14.70
2019-05-11T23:46:08.223Z,14.77
2019-05-11T23:48:38.420Z,14.27
2019-05-11T23:51:08.712Z,12.73
2019-05-11T23:53:38.609Z,13.50
2019-05-11T23:56:06.429Z,14.50
2019-05-11T23:58:34.716Z,13.67
